createdAt,value
2019-06-07T00:02:04.344Z,17.30
2019-06-07T00:04:32.155Z,17.20
2019-06-07T00:07:00.221Z,17.20
2019-06-07T00:09:28.260Z,17.20
2019-06-07T00:11:56.194Z,17.10
2019-06-07T00:14:24.111Z,17.10
2019-06-07T00:16:51.993Z,17.00
2019-06-07T00:19:19.964Z,16.90
2019-06-07T00:24:19.356Z,16.80
2019-06-07T00:26:58.259Z,16.70
2019-06-07T00:29:21.825Z,16.60
2019-06-07T00:31:50.207Z,16.50
2019-06-07T00:34:20.042Z,16.40
2019-06-07T00:36:51.232Z,16.30
2019-06-07T00:39:24.675Z,16.20
2019-06-07T00:41:52.325Z,16.10
2019-06-07T00:44:23.040Z,16.10
2019-06-07T00:46:52.824Z,16.00
2019-06-07T00:49:36.218Z,16.00
2019-06-07T00:51:54.234Z,16.00
2019-06-07T00:54:24.650Z,16.00
2019-06-07T00:56:52.575Z,15.90
2019-06-07T00:59:28.282Z,16.00
2019-06-07T01:01:50.912Z,15.90
2019-06-07T01:04:21.256Z,15.90
2019-06-07T01:06:48.848Z,15.90
2019-06-07T01:09:17.745Z,15.90
2019-06-07T01:11:46.161Z,15.90
2019-06-07T01:14:15.162Z,15.90
2019-06-07T01:16:56.425Z,15.90
2019-06-07T01:19:14.043Z,15.80
2019-06-07T01:21:42.002Z,15.80
2019-06-07T01:24:12.517Z,15.80
2019-06-07T01:26:42.608Z,15.70
2019-06-07T01:29:10.619Z,15.70
2019-06-07T01:31:38.744Z,15.70
2019-06-07T01:34:07.683Z,15.70
2019-06-07T01:36:36.426Z,15.70
2019-06-07T01:39:14.129Z,15.70
2019-06-07T01:41:46.850Z,15.80
2019-06-07T01:44:18.542Z,15.80
2019-06-07T01:46:47.516Z,15.80
2019-06-07T01:49:19.683Z,15.90
2019-06-07T01:51:49.522Z,15.90
2019-06-07T01:54:55.574Z,15.90
2019-06-07T01:57:03.260Z,15.90
2019-06-07T01:59:32.159Z,15.90
2019-06-07T02:02:01.105Z,15.90
2019-06-07T02:04:33.592Z,15.90
2019-06-07T02:07:02.246Z,15.90
2019-06-07T02:09:38.135Z,15.90
2019-06-07T02:12:25.072Z,16.00
2019-06-07T02:14:39.839Z,16.00
2019-06-07T02:17:08.498Z,15.90
2019-06-07T02:19:40.424Z,15.90
2019-06-07T02:22:08.964Z,15.90
2019-06-07T02:24:38.872Z,15.80
2019-06-07T02:27:07.157Z,15.80
2019-06-07T02:29:47.585Z,15.80
2019-06-07T02:32:37.443Z,15.80
2019-06-07T02:35:30.926Z,15.70
2019-06-07T02:37:57.808Z,15.80
2019-06-07T02:40:37.374Z,15.80
2019-06-07T02:43:37.163Z,15.80
2019-06-07T02:46:38.223Z,15.80
2019-06-07T02:49:39.606Z,15.70
2019-06-07T02:52:12.936Z,15.70
2019-06-07T02:55:10.712Z,15.70
2019-06-07T02:57:59.690Z,15.70
2019-06-07T03:01:08.946Z,15.70
2019-06-07T03:03:30.597Z,15.70
2019-06-07T03:05:59.776Z,15.70
2019-06-07T03:08:42.862Z,15.70
2019-06-07T03:11:14.288Z,15.70
2019-06-07T03:13:46.247Z,15.70
2019-06-07T03:16:28.699Z,15.70
2019-06-07T03:19:14.579Z,15.70
2019-06-07T03:21:44.111Z,15.70
2019-06-07T03:24:16.647Z,15.70
2019-06-07T03:29:44.654Z,15.70
2019-06-07T03:32:15.165Z,15.70
2019-06-07T03:35:24.956Z,15.70
2019-06-07T03:38:45.096Z,15.80
2019-06-07T03:42:06.287Z,15.80
2019-06-07T03:44:59.120Z,15.90
2019-06-07T03:51:24.633Z,15.90
2019-06-07T03:55:21.854Z,15.90
2019-06-07T03:58:50.252Z,15.90
2019-06-07T04:01:56.909Z,15.90
2019-06-07T04:04:44.402Z,15.90
2019-06-07T04:08:12.269Z,16.00
2019-06-07T04:10:54.950Z,16.00
2019-06-07T04:13:09.888Z,16.10
2019-06-07T04:15:40.885Z,16.10
2019-06-07T04:18:07.907Z,16.10
2019-06-07T04:20:40.731Z,16.10
2019-06-07T04:23:27.408Z,16.20
2019-06-07T04:25:41.850Z,16.20
2019-06-07T04:28:06.765Z,16.30
2019-06-07T04:30:41.989Z,16.30
2019-06-07T04:33:12.429Z,16.30
2019-06-07T04:35:42.877Z,16.30
2019-06-07T04:38:13.546Z,16.40
2019-06-07T04:40:43.149Z,16.40
2019-06-07T04:43:11.338Z,16.50
2019-06-07T04:45:47.988Z,16.50
2019-06-07T04:48:11.315Z,16.60
2019-06-07T04:50:43.446Z,16.60
2019-06-07T04:53:09.072Z,16.70
2019-06-07T04:55:39.857Z,16.70
2019-06-07T04:58:06.554Z,16.70
2019-06-07T05:00:58.439Z,16.70
2019-06-07T05:03:06.528Z,16.70
2019-06-07T05:05:37.490Z,16.70
2019-06-07T05:08:07.518Z,16.80
2019-06-07T05:10:35.095Z,16.80
2019-06-07T05:13:03.952Z,16.80
2019-06-07T05:15:32.142Z,16.90
2019-06-07T05:18:00.024Z,17.00
2019-06-07T05:20:27.814Z,17.00
2019-06-07T05:22:55.734Z,17.00
2019-06-07T05:25:23.544Z,17.10
2019-06-07T05:27:51.372Z,17.10
2019-06-07T05:31:02.984Z,17.10
2019-06-07T05:33:07.277Z,17.10
2019-06-07T05:35:35.665Z,17.20
2019-06-07T05:38:05.840Z,17.20
2019-06-07T05:40:39.436Z,17.20
2019-06-07T05:43:15.612Z,17.30
2019-06-07T05:45:46.871Z,17.40
2019-06-07T05:48:13.193Z,17.60
2019-06-07T05:50:49.920Z,17.70
2019-06-07T05:53:10.735Z,17.60
2019-06-07T05:55:41.630Z,17.70
2019-06-07T05:58:08.193Z,17.90
2019-06-07T06:00:36.887Z,18.00
2019-06-07T06:03:06.278Z,18.10
2019-06-07T06:05:41.325Z,18.20
2019-06-07T06:08:04.124Z,18.10
2019-06-07T06:10:31.972Z,18.40
2019-06-07T06:12:59.756Z,18.50
2019-06-07T06:15:42.406Z,18.70
2019-06-07T06:17:57.254Z,18.90
2019-06-07T06:20:32.969Z,18.90
2019-06-07T06:22:54.875Z,19.00
2019-06-07T06:25:32.919Z,19.10
2019-06-07T06:28:12.468Z,19.20
2019-06-07T06:30:23.557Z,19.40
2019-06-07T06:32:57.704Z,19.70
2019-06-07T06:35:21.040Z,19.60
2019-06-07T06:37:52.965Z,19.50
2019-06-07T06:40:18.614Z,20.00
2019-06-07T06:42:50.100Z,20.20
2019-06-07T06:45:17.599Z,20.40
2019-06-07T06:47:47.657Z,20.60
2019-06-07T06:50:16.423Z,20.70
2019-06-07T06:52:47.980Z,20.70
2019-06-07T06:55:16.585Z,21.00
2019-06-07T06:57:45.861Z,21.40
2019-06-07T07:00:15.235Z,22.20
2019-06-07T07:03:32.626Z,23.00
2019-06-07T07:05:14.398Z,23.20
2019-06-07T07:07:45.181Z,23.40
2019-06-07T07:10:18.294Z,23.30
2019-06-07T07:12:47.949Z,23.10
2019-06-07T07:15:17.360Z,23.00
2019-06-07T07:17:58.353Z,23.40
2019-06-07T07:20:14.830Z,23.70
2019-06-07T07:22:44.756Z,24.00
2019-06-07T07:25:12.953Z,24.80
2019-06-07T07:27:41.981Z,25.50
2019-06-07T07:32:45.614Z,25.30
2019-06-07T07:35:12.882Z,24.70
2019-06-07T07:37:40.629Z,24.00
2019-06-07T07:40:55.529Z,23.40
2019-06-07T07:42:39.131Z,23.20
2019-06-07T07:45:06.944Z,23.00
2019-06-07T07:47:35.077Z,22.90
2019-06-07T07:50:03.687Z,22.60
2019-06-07T07:52:31.496Z,21.80
2019-06-07T07:54:59.310Z,21.70
2019-06-07T07:57:28.490Z,21.70
2019-06-07T08:00:13.244Z,21.80
2019-06-07T08:02:26.054Z,22.20
2019-06-07T08:05:16.616Z,23.20
2019-06-07T08:07:23.643Z,23.30
2019-06-07T08:09:55.699Z,23.00
2019-06-07T08:12:21.372Z,22.80
2019-06-07T08:14:53.439Z,22.40
2019-06-07T08:17:20.169Z,21.90
2019-06-07T08:19:49.423Z,21.20
2019-06-07T08:22:17.712Z,21.70
2019-06-07T08:24:45.503Z,22.40
2019-06-07T08:27:25.690Z,22.30
2019-06-07T08:29:45.609Z,22.60
2019-06-07T08:32:12.790Z,22.90
2019-06-07T08:34:40.608Z,23.20
2019-06-07T08:37:08.384Z,23.40
2019-06-07T08:39:36.177Z,24.10
2019-06-07T08:42:15.481Z,24.80
2019-06-07T08:44:33.792Z,25.70
2019-06-07T08:47:18.885Z,25.70
2019-06-07T08:49:31.329Z,25.90
2019-06-07T08:52:10.075Z,25.50
2019-06-07T08:54:29.234Z,25.30
2019-06-07T08:57:17.978Z,24.80
2019-06-07T08:59:26.789Z,24.10
2019-06-07T09:01:59.764Z,24.00
2019-06-07T09:04:24.312Z,23.60
2019-06-07T09:07:07.241Z,23.60
2019-06-07T09:09:21.861Z,24.30
2019-06-07T09:11:49.676Z,24.90
2019-06-07T09:14:18.851Z,25.10
2019-06-07T09:16:46.683Z,25.20
2019-06-07T09:19:14.463Z,25.10
2019-06-07T09:21:42.259Z,25.00
2019-06-07T09:24:11.767Z,24.50
2019-06-07T09:26:39.699Z,24.50
2019-06-07T09:29:11.484Z,25.00
2019-06-07T09:31:51.925Z,26.40
2019-06-07T09:34:13.743Z,27.60
2019-06-07T09:36:37.259Z,28.90
2019-06-07T09:39:10.105Z,29.70
2019-06-07T09:41:47.802Z,31.30
2019-06-07T09:44:21.538Z,32.60
2019-06-07T09:46:35.869Z,32.20
2019-06-07T09:49:25.974Z,32.50
2019-06-07T09:51:33.484Z,33.40
2019-06-07T09:54:07.676Z,33.50
2019-06-07T09:56:31.053Z,33.80
2019-06-07T09:59:01.705Z,33.60
2019-06-07T10:01:28.543Z,34.40
2019-06-07T10:03:58.759Z,35.00
2019-06-07T10:06:26.214Z,33.90
2019-06-07T10:10:08.260Z,33.80
2019-06-07T10:11:23.754Z,34.40
2019-06-07T10:13:51.581Z,36.40
2019-06-07T10:16:19.357Z,37.90
2019-06-07T10:18:47.214Z,37.40
2019-06-07T10:21:15.658Z,37.70
2019-06-07T10:26:11.775Z,37.80
2019-06-07T10:28:39.587Z,36.70
2019-06-07T10:31:09.515Z,35.10
2019-06-07T10:33:37.337Z,34.50
2019-06-07T10:36:08.618Z,35.20
2019-06-07T10:38:36.924Z,36.10
2019-06-07T10:41:07.066Z,34.40
2019-06-07T10:43:34.868Z,31.80
2019-06-07T10:46:03.682Z,30.30
2019-06-07T10:48:31.874Z,29.10
2019-06-07T10:50:59.695Z,28.50
2019-06-07T10:53:30.476Z,27.60
2019-06-07T10:55:58.322Z,27.10
2019-06-07T10:58:26.172Z,27.10
2019-06-07T11:00:54.046Z,26.40
2019-06-07T11:03:21.880Z,26.30
2019-06-07T11:05:49.676Z,26.30
2019-06-07T11:08:17.446Z,26.30
2019-06-07T11:10:45.318Z,26.60
2019-06-07T11:13:14.366Z,26.90
2019-06-07T11:15:42.332Z,27.50
2019-06-07T11:18:10.378Z,27.50
2019-06-07T11:20:38.886Z,26.80
2019-06-07T11:23:08.147Z,26.80
2019-06-07T11:25:36.440Z,26.90
2019-06-07T11:28:04.359Z,27.00
2019-06-07T11:30:32.185Z,27.80
2019-06-07T11:32:59.978Z,28.20
2019-06-07T11:35:27.777Z,28.40
2019-06-07T11:37:55.626Z,28.00
2019-06-07T11:40:33.957Z,27.60
2019-06-07T11:42:53.130Z,27.60
2019-06-07T11:45:20.961Z,28.10
2019-06-07T11:47:48.750Z,29.20
2019-06-07T11:50:17.640Z,31.10
2019-06-07T11:52:46.532Z,33.00
2019-06-07T11:55:15.858Z,33.70
2019-06-07T11:57:44.165Z,33.90
2019-06-07T12:00:16.362Z,35.60
2019-06-07T12:02:44.437Z,37.10
2019-06-07T12:05:16.191Z,37.80
2019-06-07T12:07:42.118Z,38.20
2019-06-07T12:10:10.903Z,38.20
2019-06-07T12:12:39.345Z,38.10
2019-06-07T12:15:08.941Z,38.20
2019-06-07T12:17:36.933Z,37.90
2019-06-07T12:20:08.572Z,38.70
2019-06-07T12:22:35.506Z,37.70
2019-06-07T12:25:05.906Z,36.20
2019-06-07T12:27:33.892Z,34.70
2019-06-07T12:30:09.772Z,34.00
2019-06-07T12:32:31.533Z,33.20
2019-06-07T12:34:59.357Z,32.30
2019-06-07T12:37:42.657Z,32.20
2019-06-07T12:39:56.865Z,33.90
2019-06-07T12:42:24.712Z,35.30
2019-06-07T12:44:52.583Z,36.10
2019-06-07T12:47:21.088Z,35.90
2019-06-07T12:49:49.214Z,36.60
2019-06-07T12:52:19.439Z,36.80
2019-06-07T12:54:46.809Z,37.00
2019-06-07T12:57:16.239Z,36.90
2019-06-07T12:59:44.115Z,36.30
2019-06-07T13:02:11.957Z,36.70
2019-06-07T13:04:39.827Z,35.50
2019-06-07T13:07:07.697Z,35.90
2019-06-07T13:09:36.316Z,35.80
2019-06-07T13:12:04.473Z,36.00
2019-06-07T13:14:32.301Z,35.90
2019-06-07T13:17:00.179Z,35.40
2019-06-07T13:19:28.606Z,34.50
2019-06-07T13:21:56.801Z,33.00
2019-06-07T13:24:25.289Z,31.40
2019-06-07T13:26:53.607Z,30.60
2019-06-07T13:29:22.651Z,31.10
2019-06-07T13:31:53.214Z,31.70
2019-06-07T13:34:22.407Z,31.50
2019-06-07T13:36:50.847Z,30.70
2019-06-07T13:39:19.535Z,29.90
2019-06-07T13:41:48.347Z,29.80
2019-06-07T13:44:18.682Z,29.60
2019-06-07T13:46:46.725Z,28.80
2019-06-07T13:49:14.555Z,28.60
2019-06-07T13:51:42.379Z,28.50
2019-06-07T13:54:10.193Z,28.40
2019-06-07T13:56:37.994Z,28.10
2019-06-07T13:59:05.837Z,28.00
2019-06-07T14:01:33.673Z,27.90
2019-06-07T14:04:01.537Z,27.60
2019-06-07T14:06:30.234Z,27.60
2019-06-07T14:08:58.667Z,27.60
2019-06-07T14:11:27.781Z,27.20
2019-06-07T14:13:56.052Z,27.20
2019-06-07T14:16:24.313Z,27.10
2019-06-07T14:18:52.524Z,26.90
2019-06-07T14:21:20.449Z,26.60
2019-06-07T14:23:49.437Z,26.40
2019-06-07T14:26:17.698Z,26.20
2019-06-07T14:28:45.532Z,26.00
2019-06-07T14:31:13.327Z,25.90
2019-06-07T14:33:41.247Z,26.00
2019-06-07T14:36:09.594Z,26.10
2019-06-07T14:38:37.838Z,26.20
2019-06-07T14:41:06.193Z,26.10
2019-06-07T14:43:34.210Z,25.80
2019-06-07T14:46:02.402Z,25.50
2019-06-07T14:48:30.453Z,25.70
2019-06-07T14:50:58.578Z,25.80
2019-06-07T14:53:26.665Z,25.70
2019-06-07T14:55:54.934Z,25.70
2019-06-07T14:58:22.749Z,25.70
2019-06-07T15:00:50.590Z,25.80
2019-06-07T15:03:18.406Z,25.90
2019-06-07T15:05:46.260Z,26.00
2019-06-07T15:08:14.126Z,25.80
2019-06-07T15:10:42.048Z,25.70
2019-06-07T15:13:09.883Z,25.70
2019-06-07T15:15:38.926Z,25.70
2019-06-07T15:18:07.311Z,25.70
2019-06-07T15:20:36.434Z,25.70
2019-06-07T15:23:04.664Z,25.80
2019-06-07T15:25:33.611Z,25.70
2019-06-07T15:28:01.402Z,25.70
2019-06-07T15:30:29.613Z,25.80
2019-06-07T15:32:59.752Z,25.80
2019-06-07T15:35:28.090Z,25.90
2019-06-07T15:37:56.272Z,25.80
2019-06-07T15:40:24.084Z,25.70
2019-06-07T15:42:53.322Z,25.70
2019-06-07T15:45:22.361Z,25.50
2019-06-07T15:47:50.208Z,25.50
2019-06-07T15:50:18.341Z,25.50
2019-06-07T15:52:46.175Z,25.50
2019-06-07T15:55:15.242Z,25.30
2019-06-07T15:57:43.070Z,25.40
2019-06-07T16:00:12.957Z,25.50
2019-06-07T16:02:41.785Z,25.50
2019-06-07T16:05:13.730Z,25.50
2019-06-07T16:07:42.724Z,25.50
2019-06-07T16:10:12.465Z,25.50
2019-06-07T16:12:57.656Z,25.40
2019-06-07T16:15:12.625Z,25.50
2019-06-07T16:17:42.132Z,25.60
2019-06-07T16:20:11.471Z,25.60
2019-06-07T16:22:39.735Z,25.40
2019-06-07T16:25:08.145Z,25.40
2019-06-07T16:27:36.707Z,25.40
2019-06-07T16:30:09.270Z,25.20
2019-06-07T16:32:37.462Z,25.30
2019-06-07T16:35:06.621Z,25.20
2019-06-07T16:37:34.443Z,25.20
2019-06-07T16:40:02.702Z,25.30
2019-06-07T16:42:30.525Z,25.30
2019-06-07T16:44:58.335Z,25.20
2019-06-07T16:47:26.161Z,25.30
2019-06-07T16:49:53.959Z,25.40
2019-06-07T16:52:21.789Z,25.40
2019-06-07T16:54:49.596Z,25.40
2019-06-07T16:57:17.534Z,25.20
2019-06-07T16:59:48.900Z,25.20
2019-06-07T17:02:15.192Z,25.30
2019-06-07T17:04:43.560Z,25.30
2019-06-07T17:07:11.663Z,25.30
2019-06-07T17:09:40.077Z,25.30
2019-06-07T17:12:08.215Z,25.50
2019-06-07T17:14:36.208Z,25.40
2019-06-07T17:17:04.218Z,25.50
2019-06-07T17:19:32.064Z,25.50
2019-06-07T17:21:59.895Z,25.50
2019-06-07T17:24:27.767Z,25.50
2019-06-07T17:26:55.585Z,25.40
2019-06-07T17:29:23.392Z,25.40
2019-06-07T17:31:51.236Z,25.30
2019-06-07T17:34:19.122Z,25.20
2019-06-07T17:36:46.909Z,25.20
2019-06-07T17:39:14.729Z,25.20
2019-06-07T17:41:58.627Z,25.10
2019-06-07T17:44:12.301Z,25.00
2019-06-07T17:46:41.495Z,25.00
2019-06-07T17:49:09.700Z,25.00
2019-06-07T17:51:37.601Z,24.90
2019-06-07T17:54:05.429Z,24.80
2019-06-07T17:56:33.310Z,24.80
2019-06-07T17:59:01.170Z,24.70
2019-06-07T18:01:41.193Z,24.60
2019-06-07T18:03:59.465Z,24.60
2019-06-07T18:06:29.317Z,24.50
2019-06-07T18:09:00.954Z,24.40
2019-06-07T18:11:28.789Z,24.30
2019-06-07T18:14:09.421Z,24.20
2019-06-07T18:16:26.336Z,24.20
2019-06-07T18:18:54.848Z,24.10
2019-06-07T18:21:23.116Z,24.10
2019-06-07T18:23:52.876Z,24.10
2019-06-07T18:26:20.910Z,24.00
2019-06-07T18:28:48.735Z,24.00
2019-06-07T18:31:16.567Z,23.90
2019-06-07T18:33:44.398Z,23.90
2019-06-07T18:36:12.260Z,23.90
2019-06-07T18:38:40.088Z,23.80
2019-06-07T18:41:07.928Z,23.80
2019-06-07T18:43:35.761Z,23.70
2019-06-07T18:46:04.020Z,23.70
2019-06-07T18:48:31.859Z,23.70
2019-06-07T18:50:59.749Z,23.60
2019-06-07T18:53:27.646Z,23.60
2019-06-07T18:55:56.240Z,23.50
2019-06-07T18:58:24.503Z,23.50
2019-06-07T19:00:53.789Z,23.40
2019-06-07T19:03:22.059Z,23.40
2019-06-07T19:05:51.985Z,23.30
2019-06-07T19:08:20.576Z,23.20
2019-06-07T19:10:48.724Z,23.20
2019-06-07T19:13:16.881Z,23.20
2019-06-07T19:15:44.700Z,23.10
2019-06-07T19:18:12.539Z,23.00
2019-06-07T19:20:40.434Z,23.00
2019-06-07T19:23:08.308Z,22.90
2019-06-07T19:25:36.173Z,22.90
2019-06-07T19:28:04.470Z,22.80
2019-06-07T19:30:32.408Z,22.70
2019-06-07T19:33:01.373Z,22.70
2019-06-07T19:35:29.825Z,22.60
2019-06-07T19:37:57.911Z,22.60
2019-06-07T19:40:26.100Z,22.60
2019-06-07T19:42:54.155Z,22.50
2019-06-07T19:45:31.514Z,22.50
2019-06-07T19:47:54.427Z,22.50
2019-06-07T19:50:22.733Z,22.40
2019-06-07T19:52:50.556Z,22.40
2019-06-07T19:55:18.459Z,22.30
2019-06-07T19:57:49.831Z,22.30
2019-06-07T20:00:16.400Z,22.30
2019-06-07T20:02:44.256Z,22.20
2019-06-07T20:05:17.085Z,22.20
2019-06-07T20:07:44.948Z,22.10
2019-06-07T20:10:14.125Z,22.10
2019-06-07T20:12:42.033Z,22.10
2019-06-07T20:15:27.687Z,22.10
2019-06-07T20:17:42.068Z,22.00
2019-06-07T20:20:11.489Z,22.00
2019-06-07T20:22:39.340Z,21.90
2019-06-07T20:25:07.478Z,21.90
2019-06-07T20:27:35.343Z,21.90
2019-06-07T20:30:04.346Z,21.90
2019-06-07T20:32:32.498Z,21.90
2019-06-07T20:34:59.872Z,21.80
2019-06-07T20:37:27.801Z,21.70
2019-06-07T20:39:56.948Z,21.60
2019-06-07T20:42:25.264Z,21.60
2019-06-07T20:44:53.055Z,21.50
2019-06-07T20:47:21.008Z,21.50
2019-06-07T20:49:48.809Z,21.40
2019-06-07T20:52:16.732Z,21.40
2019-06-07T20:54:44.525Z,21.30
2019-06-07T20:57:12.358Z,21.30
2019-06-07T20:59:40.137Z,21.20
2019-06-07T21:02:09.527Z,21.20
2019-06-07T21:04:37.789Z,21.20
2019-06-07T21:07:05.673Z,21.10
2019-06-07T21:09:33.513Z,21.10
2019-06-07T21:12:01.674Z,21.00
2019-06-07T21:14:29.913Z,21.00
2019-06-07T21:16:57.707Z,21.00
2019-06-07T21:19:25.540Z,21.00
2019-06-07T21:21:53.356Z,21.00
2019-06-07T21:24:21.178Z,21.10
2019-06-07T21:26:49.014Z,21.00
2019-06-07T21:29:16.862Z,21.00
2019-06-07T21:31:44.679Z,21.00
2019-06-07T21:34:14.131Z,21.10
2019-06-07T21:36:42.186Z,21.10
2019-06-07T21:39:10.329Z,21.10
2019-06-07T21:41:38.393Z,21.00
2019-06-07T21:44:06.308Z,21.00
2019-06-07T21:46:34.174Z,21.00
2019-06-07T21:49:02.234Z,21.00
2019-06-07T21:51:30.370Z,20.90
2019-06-07T21:53:58.198Z,20.90
2019-06-07T21:56:26.272Z,20.80
2019-06-07T21:58:54.141Z,20.70
2019-06-07T22:01:29.522Z,20.70
2019-06-07T22:03:58.698Z,20.70
2019-06-07T22:06:26.597Z,20.60
2019-06-07T22:08:54.401Z,20.60
2019-06-07T22:11:22.397Z,20.50
2019-06-07T22:13:50.232Z,20.50
2019-06-07T22:16:28.709Z,20.40
2019-06-07T22:18:47.811Z,20.50
2019-06-07T22:21:15.649Z,20.50
2019-06-07T22:23:43.892Z,20.50
2019-06-07T22:26:13.201Z,20.40
2019-06-07T22:28:41.439Z,20.40
2019-06-07T22:31:10.602Z,20.60
2019-06-07T22:33:38.905Z,20.70
2019-06-07T22:36:06.886Z,20.90
2019-06-07T22:38:35.014Z,21.00
2019-06-07T22:41:02.813Z,21.00
2019-06-07T22:43:30.627Z,21.00
2019-06-07T22:45:58.442Z,20.90
2019-06-07T22:48:26.306Z,20.90
2019-06-07T22:50:54.102Z,20.80
2019-06-07T22:53:21.894Z,20.70
2019-06-07T22:55:56.666Z,20.60
2019-06-07T22:58:24.517Z,20.50
2019-06-07T23:00:52.328Z,20.50
2019-06-07T23:03:20.144Z,20.40
2019-06-07T23:05:48.023Z,20.40
2019-06-07T23:08:16.938Z,20.40
2019-06-07T23:10:45.120Z,20.30
2019-06-07T23:13:13.565Z,20.20
2019-06-07T23:15:41.855Z,20.20
2019-06-07T23:18:09.725Z,20.20
2019-06-07T23:20:37.528Z,20.10
2019-06-07T23:23:05.348Z,20.20
2019-06-07T23:25:33.214Z,20.20
2019-06-07T23:28:01.096Z,20.20
2019-06-07T23:30:28.899Z,20.10
2019-06-07T23:32:56.693Z,20.00
2019-06-07T23:35:24.485Z,20.00
2019-06-07T23:37:52.295Z,19.90
2019-06-07T23:40:21.449Z,19.80
2019-06-07T23:42:50.536Z,19.70
2019-06-07T23:45:19.532Z,19.60
2019-06-07T23:47:47.750Z,19.60
2019-06-07T23:50:15.856Z,19.60
2019-06-07T23:52:43.678Z,19.50
2019-06-07T23:55:12.158Z,19.50
2019-06-07T23:57:41.058Z,19.50
